Lava Hot Springs, Idaho
Current Conditions -  °F | °C
As of 4:53 AM on Friday 28 Nov 2014 (Local Time) from KPIH Reporting Station
Clear Clear  
Wind Chill: 40°   Ceiling: Unl
Heat Index: 43°   Visibility: 10mi
Dew Point: 25°   Wind: 5mph
Humidity: 49%   Direction: 360°N
Pressure: 29.95"   Gusts: NA
Location:  42.62°N, 112.01°W
Report Text: KPIH 281153Z AUTO 36004KT 10SM CLR 06/M04 A2995 RMK AO2 SLP130 T00611039 10117 20033 58013
Loading
Personal Weather Stations






























Interactive Weather Map New forecast layout! Learn more

10-Day Weather Forecast

Advertisements
Track Severe Weather on mobile